Time;durP1;ratioP1;P1;durP2;ratioP2;P2;SDS_P1;SDS_P2;PMS_P1;PMS_P2;Temp;Humidity;BMP_temperature;BMP_pressure;BME280_temperature;BME280_humidity;BME280_pressure;Samples;Min_cycle;Max_cycle;Signal;HPM_P1;HPM_P2
2024/02/15 00:00:13;;;;;;;5.47;2.57;;;;;;;;;;598955;23;1220;-79
2024/02/15 00:00:28;;;;;;;5.68;2.50;;;;;;;;;;596262;23;952;-78
2024/02/15 00:00:45;;;;;;;7.82;2.40;;;;;;;;;;594672;23;1041;-78
2024/02/15 00:01:00;;;;;;;7.65;2.55;;;;;;;;;;596327;23;1347;-78
2024/02/15 00:01:16;;;;;;;5.43;2.50;;;;;;;;;;597384;23;1071;-78
2024/02/15 00:01:31;;;;;;;5.33;2.50;;;;;;;;;;597140;23;1242;-79
2024/02/15 00:01:47;;;;;;;6.05;2.63;;;;;;;;;;596983;23;813;-78
2024/02/15 00:02:02;;;;;;;5.40;2.60;;;;;;;;;;597109;23;1205;-79
2024/02/15 00:02:18;;;;;;;4.43;2.55;;;;;;;;;;599794;23;864;-79
2024/02/15 00:02:33;;;;;;;4.53;2.37;;;;;;;;;;597249;23;1227;-79
2024/02/15 00:02:49;;;;;;;5.25;2.42;;;;;;;;;;599365;23;862;-79
2024/02/15 00:03:06;;;;;;;6.57;2.70;;;;;;;;;;596052;23;1273;-78
2024/02/15 00:03:22;;;;;;;5.83;2.57;;;;;;;;;;597168;23;816;-78
2024/02/15 00:03:37;;;;;;;4.70;2.33;;;;;;;;;;599531;23;1238;-78
2024/02/15 00:03:53;;;;;;;4.60;2.40;;;;;;;;;;599587;23;1188;-79
2024/02/15 00:04:10;;;;;;;4.67;2.33;;;;;;;;;;599974;23;813;-79
2024/02/15 00:04:26;;;;;;;4.97;2.40;;;;;;;;;;597499;23;1710;-78
2024/02/15 00:04:43;;;;;;;4.27;2.40;;;;;;;;;;599744;23;1052;-78
2024/02/15 00:04:59;;;;;;;3.92;2.13;;;;;;;;;;601597;23;886;-78
2024/02/15 00:05:15;;;;;;;3.97;2.30;;;;;;;;;;602475;23;1147;-79
2024/02/15 00:05:31;;;;;;;4.88;2.40;;;;;;;;;;603101;23;1353;-78
2024/02/15 00:05:47;;;;;;;5.95;2.40;;;;;;;;;;602285;23;1185;-78
2024/02/15 00:06:03;;;;;;;6.35;2.55;;;;;;;;;;601802;23;1002;-78
2024/02/15 00:06:19;;;;;;;6.03;2.70;;;;;;;;;;603592;23;906;-78
2024/02/15 00:06:35;;;;;;;5.13;2.53;;;;;;;;;;604206;23;1244;-79
2024/02/15 00:06:50;;;;;;;4.70;2.47;;;;;;;;;;605483;23;1309;-78
2024/02/15 00:07:06;;;;;;;4.47;2.50;;;;;;;;;;604049;23;1054;-79
2024/02/15 00:07:22;;;;;;;5.05;2.55;;;;;;;;;;602545;23;832;-79
2024/02/15 00:07:38;;;;;;;4.97;2.50;;;;;;;;;;603650;23;855;-78
2024/02/15 00:07:54;;;;;;;4.53;2.30;;;;;;;;;;604932;23;898;-78
2024/02/15 00:08:09;;;;;;;4.57;2.27;;;;;;;;;;605269;23;1090;-78
2024/02/15 00:08:26;;;;;;;4.97;2.50;;;;;;;;;;602261;23;1307;-78
2024/02/15 00:08:42;;;;;;;5.30;2.92;;;;;;;;;;602636;23;1390;-79
2024/02/15 00:08:57;;;;;;;5.67;3.13;;;;;;;;;;601593;23;1921;-79
2024/02/15 00:09:13;;;;;;;6.20;3.20;;;;;;;;;;602264;23;1170;-78
2024/02/15 00:09:28;;;;;;;5.93;3.17;;;;;;;;;;603214;23;808;-79
2024/02/15 00:09:44;;;;;;;5.90;3.30;;;;;;;;;;602677;23;840;-78
2024/02/15 00:10:00;;;;;;;5.97;3.07;;;;;;;;;;602083;23;1128;-78
2024/02/15 00:10:15;;;;;;;5.43;2.83;;;;;;;;;;603380;23;888;-78
2024/02/15 00:10:31;;;;;;;5.60;2.83;;;;;;;;;;604356;23;1324;-79
2024/02/15 00:10:47;;;;;;;6.70;3.08;;;;;;;;;;602416;23;863;-79
2024/02/15 00:11:03;;;;;;;6.38;3.13;;;;;;;;;;601946;23;1302;-79
2024/02/15 00:11:18;;;;;;;5.87;3.07;;;;;;;;;;602446;23;876;-79
2024/02/15 00:11:34;;;;;;;6.38;3.00;;;;;;;;;;601936;23;1290;-79
2024/02/15 00:11:49;;;;;;;5.73;2.90;;;;;;;;;;599688;23;1298;-78
2024/02/15 00:12:05;;;;;;;5.63;2.72;;;;;;;;;;602775;23;1437;-79
2024/02/15 00:12:21;;;;;;;5.63;2.78;;;;;;;;;;602402;23;1236;-79
2024/02/15 00:12:36;;;;;;;5.97;2.80;;;;;;;;;;599553;23;1349;-79
2024/02/15 00:12:52;;;;;;;6.15;2.70;;;;;;;;;;599601;23;852;-79
2024/02/15 00:13:07;;;;;;;6.30;2.95;;;;;;;;;;596548;23;1096;-79
2024/02/15 00:13:23;;;;;;;6.17;3.00;;;;;;;;;;599180;23;1308;-79
2024/02/15 00:13:38;;;;;;;6.22;2.83;;;;;;;;;;599581;23;924;-79
2024/02/15 00:13:56;;;;;;;5.73;2.73;;;;;;;;;;600749;23;947;-78
2024/02/15 00:14:12;;;;;;;5.13;2.83;;;;;;;;;;602924;23;874;-79
2024/02/15 00:14:28;;;;;;;7.57;3.20;;;;;;;;;;603194;23;1249;-78
2024/02/15 00:14:43;;;;;;;8.15;3.25;;;;;;;;;;602789;23;1208;-79
2024/02/15 00:14:59;;;;;;;5.70;3.10;;;;;;;;;;603209;23;1361;-78
2024/02/15 00:15:14;;;;;;;5.00;2.97;;;;;;;;;;603079;23;808;-79
2024/02/15 00:15:31;;;;;;;5.00;2.70;;;;;;;;;;602259;23;1064;-79
2024/02/15 00:15:49;;;;;;;5.57;2.60;;;;;;;;;;602499;23;964;-78
2024/02/15 00:16:04;;;;;;;5.32;2.60;;;;;;;;;;599159;23;1326;-78
2024/02/15 00:16:20;;;;;;;4.97;2.60;;;;;;;;;;599440;23;1298;-78
2024/02/15 00:16:36;;;;;;;5.35;2.67;;;;;;;;;;597818;23;1248;-78
2024/02/15 00:16:51;;;;;;;6.50;2.90;;;;;;;;;;599259;23;1336;-78
2024/02/15 00:17:07;;;;;;;6.87;3.10;;;;;;;;;;599432;23;1102;-78
2024/02/15 00:17:22;;;;;;;6.43;3.22;;;;;;;;;;599709;23;1206;-78
2024/02/15 00:17:38;;;;;;;5.50;3.03;;;;;;;;;;599344;23;1082;-79
2024/02/15 00:17:54;;;;;;;6.35;2.85;;;;;;;;;;600242;23;880;-79
2024/02/15 00:18:09;;;;;;;7.13;3.00;;;;;;;;;;602704;23;836;-78
2024/02/15 00:18:25;;;;;;;5.35;2.83;;;;;;;;;;602560;23;895;-78
2024/02/15 00:18:40;;;;;;;5.10;2.77;;;;;;;;;;602728;23;817;-79
2024/02/15 00:18:56;;;;;;;5.57;2.90;;;;;;;;;;605802;23;828;-78
2024/02/15 00:19:13;;;;;;;5.45;3.00;;;;;;;;;;605998;23;852;-78
2024/02/15 00:19:29;;;;;;;7.63;3.17;;;;;;;;;;605175;23;1151;-78
2024/02/15 00:19:46;;;;;;;7.57;3.05;;;;;;;;;;606325;23;907;-78
2024/02/15 00:20:09;;;;;;;5.55;2.88;;;;;;;;;;605733;23;866;-78
2024/02/15 00:20:24;;;;;;;6.88;2.72;;;;;;;;;;605598;23;859;-77
2024/02/15 00:20:40;;;;;;;7.87;2.67;;;;;;;;;;605317;23;889;-78
2024/02/15 00:20:55;;;;;;;6.53;2.60;;;;;;;;;;605257;23;1178;-78
2024/02/15 00:21:11;;;;;;;6.00;2.77;;;;;;;;;;605356;23;777;-78
2024/02/15 00:21:26;;;;;;;5.43;2.80;;;;;;;;;;605629;23;937;-78
2024/02/15 00:21:45;;;;;;;6.00;2.70;;;;;;;;;;605466;23;815;-78
2024/02/15 00:22:01;;;;;;;5.35;2.40;;;;;;;;;;606127;23;844;-79
2024/02/15 00:22:16;;;;;;;4.68;2.40;;;;;;;;;;605740;23;799;-78
2024/02/15 00:22:33;;;;;;;5.67;2.50;;;;;;;;;;606295;23;845;-79
2024/02/15 00:22:49;;;;;;;5.97;2.63;;;;;;;;;;605536;23;997;-78
2024/02/15 00:23:05;;;;;;;5.50;2.67;;;;;;;;;;605522;23;844;-79
2024/02/15 00:23:21;;;;;;;6.35;2.80;;;;;;;;;;605646;23;860;-78
2024/02/15 00:23:36;;;;;;;7.05;2.83;;;;;;;;;;605555;23;856;-79
2024/02/15 00:23:55;;;;;;;6.33;2.67;;;;;;;;;;605132;23;1115;-78
2024/02/15 00:24:11;;;;;;;6.32;2.80;;;;;;;;;;602473;23;1090;-79
2024/02/15 00:24:27;;;;;;;7.00;2.70;;;;;;;;;;602346;23;1120;-78
2024/02/15 00:24:43;;;;;;;5.78;2.60;;;;;;;;;;602076;23;1101;-78
2024/02/15 00:24:59;;;;;;;5.20;2.70;;;;;;;;;;602448;23;1079;-80
2024/02/15 00:25:15;;;;;;;5.72;2.70;;;;;;;;;;602596;23;1200;-79
2024/02/15 00:25:30;;;;;;;5.93;2.60;;;;;;;;;;602140;23;992;-79
2024/02/15 00:25:46;;;;;;;5.27;2.77;;;;;;;;;;602659;23;990;-78
2024/02/15 00:26:01;;;;;;;4.68;2.88;;;;;;;;;;602800;23;1270;-78
2024/02/15 00:26:16;;;;;;;4.60;2.67;;;;;;;;;;599201;23;1229;-78
2024/02/15 00:26:32;;;;;;;4.67;2.50;;;;;;;;;;596388;23;1327;-78
2024/02/15 00:26:47;;;;;;;4.55;2.35;;;;;;;;;;598865;23;1169;-79
2024/02/15 00:27:04;;;;;;;5.27;2.23;;;;;;;;;;599326;23;1048;-78
2024/02/15 00:27:20;;;;;;;4.97;2.35;;;;;;;;;;598531;23;985;-79
2024/02/15 00:27:35;;;;;;;4.95;2.65;;;;;;;;;;599837;23;859;-78
2024/02/15 00:27:51;;;;;;;5.27;2.80;;;;;;;;;;600388;23;1076;-79
2024/02/15 00:28:07;;;;;;;4.75;2.70;;;;;;;;;;603194;23;1195;-79
2024/02/15 00:28:23;;;;;;;5.50;2.50;;;;;;;;;;605355;23;964;-78
2024/02/15 00:28:41;;;;;;;6.38;2.60;;;;;;;;;;605837;23;863;-79
2024/02/15 00:28:58;;;;;;;5.70;2.60;;;;;;;;;;605154;23;1954;-79
2024/02/15 00:29:13;;;;;;;6.53;2.60;;;;;;;;;;602364;23;1232;-79
2024/02/15 00:29:29;;;;;;;5.77;2.80;;;;;;;;;;600035;23;1262;-78
2024/02/15 00:29:45;;;;;;;5.78;2.70;;;;;;;;;;597017;23;1252;-78
2024/02/15 00:30:01;;;;;;;5.43;2.53;;;;;;;;;;596521;23;935;-78
2024/02/15 00:30:17;;;;;;;5.03;2.50;;;;;;;;;;596815;23;1026;-78
2024/02/15 00:30:34;;;;;;;5.75;2.55;;;;;;;;;;596302;23;1163;-79
2024/02/15 00:30:50;;;;;;;7.10;2.75;;;;;;;;;;593868;23;1339;-79
2024/02/15 00:31:05;;;;;;;8.35;3.00;;;;;;;;;;594711;23;1269;-78
2024/02/15 00:31:21;;;;;;;7.43;2.80;;;;;;;;;;596146;23;1244;-78
2024/02/15 00:31:38;;;;;;;6.22;2.70;;;;;;;;;;600286;23;843;-79
2024/02/15 00:31:54;;;;;;;5.82;2.60;;;;;;;;;;602352;23;966;-79
2024/02/15 00:32:10;;;;;;;4.65;2.45;;;;;;;;;;602245;23;1207;-79
2024/02/15 00:32:25;;;;;;;4.63;2.40;;;;;;;;;;601970;23;975;-79
2024/02/15 00:32:41;;;;;;;4.37;2.40;;;;;;;;;;603001;23;1171;-79
2024/02/15 00:32:56;;;;;;;4.70;2.40;;;;;;;;;;605482;23;1257;-78
2024/02/15 00:33:12;;;;;;;5.27;2.43;;;;;;;;;;605392;23;1134;-79
2024/02/15 00:33:28;;;;;;;5.35;2.45;;;;;;;;;;605216;23;976;-79
2024/02/15 00:33:43;;;;;;;7.30;2.50;;;;;;;;;;605930;23;1048;-73
2024/02/15 00:33:59;;;;;;;7.50;2.60;;;;;;;;;;604606;23;1025;-73
2024/02/15 00:34:16;;;;;;;5.70;2.47;;;;;;;;;;605461;23;1096;-73
2024/02/15 00:34:32;;;;;;;6.28;2.47;;;;;;;;;;604569;23;1053;-72
2024/02/15 00:34:47;;;;;;;6.28;2.60;;;;;;;;;;602464;23;1044;-72
2024/02/15 00:35:07;;;;;;;5.60;2.50;;;;;;;;;;601336;23;832;-73
2024/02/15 00:35:23;;;;;;;4.05;2.30;;;;;;;;;;599119;23;851;-73
2024/02/15 00:35:38;;;;;;;3.97;2.20;;;;;;;;;;599045;23;1207;-73
2024/02/15 00:35:54;;;;;;;5.07;2.40;;;;;;;;;;602349;23;1092;-73
2024/02/15 00:36:10;;;;;;;5.70;2.60;;;;;;;;;;602661;23;1017;-73
2024/02/15 00:36:25;;;;;;;5.55;2.53;;;;;;;;;;603834;23;968;-73
2024/02/15 00:36:44;;;;;;;4.40;2.30;;;;;;;;;;604826;23;1065;-73
2024/02/15 00:36:59;;;;;;;3.55;2.13;;;;;;;;;;605033;23;901;-73
2024/02/15 00:37:16;;;;;;;5.95;2.50;;;;;;;;;;604664;23;1010;-73
2024/02/15 00:37:31;;;;;;;7.60;2.90;;;;;;;;;;605996;23;832;-72
2024/02/15 00:37:47;;;;;;;6.50;2.70;;;;;;;;;;604716;23;993;-73
2024/02/15 00:38:03;;;;;;;6.97;2.67;;;;;;;;;;605164;23;1065;-73
2024/02/15 00:38:19;;;;;;;6.72;2.70;;;;;;;;;;605590;23;1403;-73
2024/02/15 00:38:35;;;;;;;5.28;2.60;;;;;;;;;;604844;23;1016;-73
2024/02/15 00:38:51;;;;;;;5.20;2.50;;;;;;;;;;605325;23;878;-73
2024/02/15 00:39:08;;;;;;;4.20;2.28;;;;;;;;;;605295;23;1149;-73
2024/02/15 00:39:24;;;;;;;5.28;2.40;;;;;;;;;;604889;23;1166;-72
2024/02/15 00:39:40;;;;;;;6.88;2.50;;;;;;;;;;605010;23;839;-73
2024/02/15 00:39:55;;;;;;;5.77;2.40;;;;;;;;;;605512;23;801;-73
2024/02/15 00:40:11;;;;;;;5.05;2.50;;;;;;;;;;605137;23;1023;-73
2024/02/15 00:40:26;;;;;;;6.47;2.60;;;;;;;;;;604775;23;1073;-73
2024/02/15 00:40:42;;;;;;;6.47;2.40;;;;;;;;;;604871;23;1054;-73
2024/02/15 00:41:01;;;;;;;4.50;2.30;;;;;;;;;;605562;23;1235;-73
2024/02/15 00:41:16;;;;;;;3.75;2.33;;;;;;;;;;605596;23;887;-73
2024/02/15 00:41:33;;;;;;;4.25;2.53;;;;;;;;;;605016;23;1180;-73
2024/02/15 00:41:49;;;;;;;5.60;2.60;;;;;;;;;;606079;23;1285;-73
2024/02/15 00:42:08;;;;;;;6.40;2.65;;;;;;;;;;608122;23;1107;-73
2024/02/15 00:42:24;;;;;;;6.15;2.60;;;;;;;;;;608390;23;828;-72
2024/02/15 00:42:39;;;;;;;6.80;2.73;;;;;;;;;;607488;23;924;-72
2024/02/15 00:42:55;;;;;;;7.10;2.92;;;;;;;;;;608318;23;1324;-73
2024/02/15 00:43:10;;;;;;;6.83;2.93;;;;;;;;;;608397;23;1298;-73
2024/02/15 00:43:27;;;;;;;5.72;2.70;;;;;;;;;;609122;23;1000;-72
2024/02/15 00:43:43;;;;;;;6.22;2.55;;;;;;;;;;605376;23;1399;-72
2024/02/15 00:43:59;;;;;;;6.87;2.63;;;;;;;;;;605157;23;918;-73
2024/02/15 00:44:14;;;;;;;5.68;2.60;;;;;;;;;;605182;23;1278;-73
2024/02/15 00:44:30;;;;;;;5.80;2.80;;;;;;;;;;605158;23;1025;-72
2024/02/15 00:44:45;;;;;;;5.33;2.77;;;;;;;;;;604800;23;1134;-73
2024/02/15 00:45:01;;;;;;;4.55;2.50;;;;;;;;;;604996;23;1170;-73
2024/02/15 00:45:17;;;;;;;4.80;2.35;;;;;;;;;;605911;23;879;-73
2024/02/15 00:45:32;;;;;;;5.37;2.37;;;;;;;;;;605103;23;1177;-73
2024/02/15 00:45:48;;;;;;;5.32;2.40;;;;;;;;;;605467;23;792;-73
2024/02/15 00:46:04;;;;;;;4.33;2.13;;;;;;;;;;608099;23;1218;-73
2024/02/15 00:46:19;;;;;;;4.15;2.10;;;;;;;;;;607800;23;1068;-73
2024/02/15 00:46:36;;;;;;;5.03;2.43;;;;;;;;;;607379;23;901;-73
2024/02/15 00:46:51;;;;;;;5.45;2.60;;;;;;;;;;605091;23;910;-73
2024/02/15 00:47:09;;;;;;;6.80;2.70;;;;;;;;;;604911;23;1167;-73
2024/02/15 00:47:25;;;;;;;5.70;2.35;;;;;;;;;;604922;23;1231;-73
2024/02/15 00:47:41;;;;;;;5.60;2.30;;;;;;;;;;605110;23;827;-74
2024/02/15 00:47:57;;;;;;;5.68;2.42;;;;;;;;;;602070;23;1312;-73
2024/02/15 00:48:13;;;;;;;5.32;2.63;;;;;;;;;;601928;23;1019;-72
2024/02/15 00:48:29;;;;;;;4.90;2.50;;;;;;;;;;601851;23;1070;-73
2024/02/15 00:48:47;;;;;;;4.85;2.58;;;;;;;;;;602391;23;1244;-73
2024/02/15 00:49:05;;;;;;;6.95;2.78;;;;;;;;;;602293;23;1962;-73
2024/02/15 00:49:22;;;;;;;6.25;2.60;;;;;;;;;;602368;23;869;-73
2024/02/15 00:49:37;;;;;;;5.72;2.50;;;;;;;;;;602393;23;896;-70
2024/02/15 00:49:53;;;;;;;6.10;2.28;;;;;;;;;;604746;23;855;-71
2024/02/15 00:50:09;;;;;;;5.00;2.20;;;;;;;;;;605268;23;1060;-70
2024/02/15 00:50:25;;;;;;;5.32;2.47;;;;;;;;;;605211;23;1032;-70
2024/02/15 00:50:40;;;;;;;6.17;2.60;;;;;;;;;;599921;23;1163;-71
2024/02/15 00:50:56;;;;;;;6.15;2.63;;;;;;;;;;600572;23;929;-71
2024/02/15 00:51:11;;;;;;;5.67;2.63;;;;;;;;;;602165;23;883;-71
2024/02/15 00:51:27;;;;;;;5.03;2.50;;;;;;;;;;601813;23;998;-70
2024/02/15 00:51:42;;;;;;;5.57;2.60;;;;;;;;;;602630;23;958;-71
2024/02/15 00:51:58;;;;;;;5.53;2.42;;;;;;;;;;602293;23;1104;-71
2024/02/15 00:52:13;;;;;;;6.27;2.33;;;;;;;;;;602321;23;1219;-70
2024/02/15 00:52:30;;;;;;;6.95;2.60;;;;;;;;;;605688;23;1065;-70
2024/02/15 00:52:46;;;;;;;6.28;2.50;;;;;;;;;;608380;23;919;-70
2024/02/15 00:53:01;;;;;;;5.90;2.40;;;;;;;;;;604325;23;1179;-70
2024/02/15 00:53:17;;;;;;;6.32;2.55;;;;;;;;;;605136;23;1033;-71
2024/02/15 00:53:32;;;;;;;6.37;2.70;;;;;;;;;;605111;23;1159;-71
2024/02/15 00:53:48;;;;;;;5.65;2.67;;;;;;;;;;605233;23;1096;-70
2024/02/15 00:54:04;;;;;;;5.83;2.60;;;;;;;;;;605242;23;1021;-71
2024/02/15 00:54:19;;;;;;;5.25;2.42;;;;;;;;;;604709;23;862;-70
2024/02/15 00:54:36;;;;;;;5.47;2.42;;;;;;;;;;604958;23;920;-70
2024/02/15 00:54:52;;;;;;;6.07;2.55;;;;;;;;;;606024;23;1322;-70
2024/02/15 00:55:07;;;;;;;5.87;2.53;;;;;;;;;;608168;23;1021;-71
2024/02/15 00:55:24;;;;;;;4.57;2.50;;;;;;;;;;607745;23;1198;-70
2024/02/15 00:55:39;;;;;;;4.90;2.35;;;;;;;;;;607866;23;1055;-71
2024/02/15 00:55:55;;;;;;;5.27;2.33;;;;;;;;;;607001;23;877;-71
2024/02/15 00:56:11;;;;;;;4.28;2.20;;;;;;;;;;604755;23;1254;-70
2024/02/15 00:56:27;;;;;;;6.20;2.22;;;;;;;;;;605331;23;1155;-70
2024/02/15 00:56:43;;;;;;;6.13;2.30;;;;;;;;;;605606;23;906;-71
2024/02/15 00:56:58;;;;;;;5.13;2.10;;;;;;;;;;604892;23;776;-70
2024/02/15 00:57:14;;;;;;;5.95;2.30;;;;;;;;;;602612;23;1097;-70
2024/02/15 00:57:29;;;;;;;6.73;2.50;;;;;;;;;;604665;23;1209;-71
2024/02/15 00:57:45;;;;;;;6.40;2.50;;;;;;;;;;604410;23;1127;-70
2024/02/15 00:58:00;;;;;;;5.30;2.47;;;;;;;;;;605017;23;915;-71
2024/02/15 00:58:16;;;;;;;4.68;2.40;;;;;;;;;;605339;23;1276;-70
2024/02/15 00:58:31;;;;;;;4.50;2.30;;;;;;;;;;605526;23;808;-70
2024/02/15 00:58:47;;;;;;;4.85;2.35;;;;;;;;;;602199;23;1366;-70
2024/02/15 00:59:03;;;;;;;4.90;2.33;;;;;;;;;;603089;23;890;-70
2024/02/15 00:59:18;;;;;;;4.87;2.30;;;;;;;;;;605197;23;1209;-71
2024/02/15 00:59:35;;;;;;;5.22;2.33;;;;;;;;;;604597;23;809;-70
2024/02/15 00:59:51;;;;;;;6.22;2.47;;;;;;;;;;605360;23;1144;-70
2024/02/15 01:00:09;;;;;;;6.30;2.70;;;;;;;;;;605646;23;915;-70
2024/02/15 01:00:25;;;;;;;5.30;2.60;;;;;;;;;;602397;23;1076;-70
2024/02/15 01:00:41;;;;;;;5.53;2.58;;;;;;;;;;600811;23;1362;-70
2024/02/15 01:00:56;;;;;;;5.35;2.47;;;;;;;;;;601409;23;1108;-70
2024/02/15 01:01:12;;;;;;;5.73;2.40;;;;;;;;;;602259;23;1010;-70
2024/02/15 01:01:27;;;;;;;8.15;2.60;;;;;;;;;;601982;23;1314;-70
2024/02/15 01:01:43;;;;;;;7.83;2.80;;;;;;;;;;599406;23;1263;-70
2024/02/15 01:01:59;;;;;;;6.50;2.70;;;;;;;;;;599358;23;898;-71
2024/02/15 01:02:15;;;;;;;5.97;2.55;;;;;;;;;;600589;23;1103;-70
2024/02/15 01:02:30;;;;;;;5.97;2.53;;;;;;;;;;603358;23;914;-71
2024/02/15 01:02:46;;;;;;;5.78;2.78;;;;;;;;;;602178;23;1055;-71
2024/02/15 01:03:02;;;;;;;3.72;2.45;;;;;;;;;;602182;23;876;-70
2024/02/15 01:03:19;;;;;;;4.20;2.40;;;;;;;;;;603218;23;1528;-70
2024/02/15 01:03:35;;;;;;;5.20;2.50;;;;;;;;;;603338;23;847;-70
2024/02/15 01:03:50;;;;;;;4.60;2.38;;;;;;;;;;602492;23;1228;-70
2024/02/15 01:04:07;;;;;;;5.13;2.43;;;;;;;;;;602927;23;1010;-70
2024/02/15 01:04:22;;;;;;;7.55;2.78;;;;;;;;;;602679;23;1073;-71
2024/02/15 01:04:38;;;;;;;7.32;2.60;;;;;;;;;;600515;23;1094;-70
2024/02/15 01:04:56;;;;;;;5.22;2.40;;;;;;;;;;601743;23;1103;-70
2024/02/15 01:05:15;;;;;;;4.85;2.50;;;;;;;;;;602410;23;1196;-70
2024/02/15 01:05:31;;;;;;;5.50;2.47;;;;;;;;;;602196;23;1014;-70
2024/02/15 01:05:46;;;;;;;6.30;2.67;;;;;;;;;;602402;23;848;-70
2024/02/15 01:06:02;;;;;;;5.10;2.60;;;;;;;;;;602209;23;1360;-70
2024/02/15 01:06:18;;;;;;;4.47;2.47;;;;;;;;;;605027;23;1494;-70
2024/02/15 01:06:34;;;;;;;4.15;2.30;;;;;;;;;;605227;23;893;-70
2024/02/15 01:06:49;;;;;;;5.85;2.50;;;;;;;;;;605598;23;1283;-70
2024/02/15 01:07:05;;;;;;;6.67;2.60;;;;;;;;;;605610;23;1259;-70
2024/02/15 01:07:20;;;;;;;5.63;2.40;;;;;;;;;;605509;23;1184;-70
2024/02/15 01:07:36;;;;;;;5.05;2.40;;;;;;;;;;604958;23;1220;-70
2024/02/15 01:07:52;;;;;;;5.37;2.50;;;;;;;;;;605008;23;937;-70
2024/02/15 01:08:08;;;;;;;5.80;2.72;;;;;;;;;;605364;23;864;-70
2024/02/15 01:08:24;;;;;;;6.72;2.80;;;;;;;;;;605367;23;908;-70
2024/02/15 01:08:40;;;;;;;8.13;3.05;;;;;;;;;;603888;23;1006;-71
2024/02/15 01:08:55;;;;;;;6.23;2.87;;;;;;;;;;603039;23;902;-70
2024/02/15 01:09:10;;;;;;;5.25;2.58;;;;;;;;;;605368;23;1925;-70
2024/02/15 01:09:26;;;;;;;6.07;2.60;;;;;;;;;;606030;23;1018;-70
2024/02/15 01:09:41;;;;;;;6.82;2.75;;;;;;;;;;607400;23;1301;-70
2024/02/15 01:09:57;;;;;;;5.97;2.70;;;;;;;;;;604681;23;1114;-71
2024/02/15 01:10:13;;;;;;;6.22;2.60;;;;;;;;;;602717;23;1212;-70
2024/02/15 01:10:29;;;;;;;7.22;2.53;;;;;;;;;;602096;23;1280;-70
2024/02/15 01:10:45;;;;;;;6.60;2.40;;;;;;;;;;602069;23;927;-70
2024/02/15 01:11:01;;;;;;;4.80;2.35;;;;;;;;;;602070;23;1334;-70
2024/02/15 01:11:16;;;;;;;6.07;2.42;;;;;;;;;;602125;23;1034;-70
2024/02/15 01:11:32;;;;;;;7.00;2.60;;;;;;;;;;599700;23;1243;-70
2024/02/15 01:11:47;;;;;;;6.45;2.72;;;;;;;;;;599401;23;887;-70
2024/02/15 01:12:03;;;;;;;6.30;2.80;;;;;;;;;;600490;23;955;-71
2024/02/15 01:12:20;;;;;;;5.72;2.65;;;;;;;;;;602038;23;1085;-70
2024/02/15 01:12:36;;;;;;;4.20;2.50;;;;;;;;;;602784;23;910;-70
2024/02/15 01:12:51;;;;;;;5.37;2.57;;;;;;;;;;602892;23;1334;-70
2024/02/15 01:13:08;;;;;;;5.63;2.60;;;;;;;;;;605487;23;997;-70
2024/02/15 01:13:25;;;;;;;4.82;2.47;;;;;;;;;;602911;23;1495;-71
2024/02/15 01:13:42;;;;;;;5.43;2.50;;;;;;;;;;602463;23;1375;-70
2024/02/15 01:13:58;;;;;;;4.85;2.47;;;;;;;;;;599599;23;1321;-70
2024/02/15 01:14:15;;;;;;;4.73;2.50;;;;;;;;;;597906;23;1368;-71
2024/02/15 01:14:31;;;;;;;6.15;2.63;;;;;;;;;;599659;23;1081;-70
2024/02/15 01:14:47;;;;;;;6.68;2.70;;;;;;;;;;596929;23;1003;-71
2024/02/15 01:15:03;;;;;;;6.68;2.63;;;;;;;;;;599315;23;1190;-71
2024/02/15 01:15:19;;;;;;;5.32;2.47;;;;;;;;;;599768;23;997;-70
2024/02/15 01:15:37;;;;;;;4.43;2.42;;;;;;;;;;599181;23;1053;-73
2024/02/15 01:15:52;;;;;;;5.65;2.40;;;;;;;;;;602277;23;1102;-73
2024/02/15 01:16:08;;;;;;;6.73;2.70;;;;;;;;;;604607;23;1033;-73
2024/02/15 01:16:24;;;;;;;6.00;2.70;;;;;;;;;;605541;23;859;-73
2024/02/15 01:16:40;;;;;;;5.55;2.50;;;;;;;;;;607255;23;955;-72
2024/02/15 01:16:55;;;;;;;6.20;2.80;;;;;;;;;;608062;23;915;-73
2024/02/15 01:17:11;;;;;;;5.53;2.70;;;;;;;;;;608294;23;1272;-73
2024/02/15 01:17:27;;;;;;;4.57;2.47;;;;;;;;;;609062;23;907;-73
2024/02/15 01:17:43;;;;;;;4.57;2.60;;;;;;;;;;608576;23;854;-73
2024/02/15 01:17:58;;;;;;;6.05;2.72;;;;;;;;;;608192;23;827;-73
2024/02/15 01:18:14;;;;;;;6.07;2.60;;;;;;;;;;608578;23;1352;-73
2024/02/15 01:18:31;;;;;;;4.88;2.40;;;;;;;;;;608039;23;1016;-72
2024/02/15 01:18:47;;;;;;;4.78;2.38;;;;;;;;;;608314;23;887;-73
2024/02/15 01:19:02;;;;;;;5.80;2.57;;;;;;;;;;607886;23;1061;-73
2024/02/15 01:19:18;;;;;;;7.20;2.60;;;;;;;;;;608407;23;1298;-73
2024/02/15 01:19:33;;;;;;;7.20;2.42;;;;;;;;;;608016;23;1069;-73
2024/02/15 01:19:49;;;;;;;6.53;2.40;;;;;;;;;;605597;23;1200;-73
2024/02/15 01:20:06;;;;;;;6.60;2.47;;;;;;;;;;606251;23;808;-73
2024/02/15 01:20:22;;;;;;;6.28;2.47;;;;;;;;;;601934;23;1150;-73
2024/02/15 01:20:37;;;;;;;6.27;2.50;;;;;;;;;;601845;23;1015;-73
2024/02/15 01:20:53;;;;;;;5.50;2.40;;;;;;;;;;602453;23;916;-73
2024/02/15 01:21:08;;;;;;;5.83;2.40;;;;;;;;;;601350;23;928;-73
2024/02/15 01:21:25;;;;;;;5.57;2.55;;;;;;;;;;602162;23;1214;-72
2024/02/15 01:21:42;;;;;;;5.57;2.60;;;;;;;;;;603581;23;921;-72
2024/02/15 01:21:59;;;;;;;4.20;2.45;;;;;;;;;;605922;23;987;-72
2024/02/15 01:22:15;;;;;;;4.65;2.40;;;;;;;;;;606621;23;1080;-73
2024/02/15 01:22:31;;;;;;;6.68;2.58;;;;;;;;;;608702;23;1245;-73
2024/02/15 01:22:46;;;;;;;6.38;2.60;;;;;;;;;;608006;23;1016;-72
2024/02/15 01:23:02;;;;;;;5.33;2.50;;;;;;;;;;608079;23;871;-73
2024/02/15 01:23:18;;;;;;;4.65;2.33;;;;;;;;;;606489;23;994;-73
2024/02/15 01:23:36;;;;;;;5.43;2.20;;;;;;;;;;604895;23;976;-73
2024/02/15 01:23:53;;;;;;;5.82;2.20;;;;;;;;;;605431;23;844;-72
2024/02/15 01:24:09;;;;;;;5.80;2.30;;;;;;;;;;605440;23;922;-73
2024/02/15 01:24:25;;;;;;;5.10;2.40;;;;;;;;;;603554;23;1115;-73
2024/02/15 01:24:40;;;;;;;5.93;2.33;;;;;;;;;;605102;23;836;-72
2024/02/15 01:24:56;;;;;;;5.73;2.40;;;;;;;;;;605131;23;1004;-72
2024/02/15 01:25:12;;;;;;;5.68;2.63;;;;;;;;;;606031;23;961;-73
2024/02/15 01:25:28;;;;;;;5.40;2.50;;;;;;;;;;605189;23;1009;-73
2024/02/15 01:25:45;;;;;;;5.30;2.40;;;;;;;;;;605696;23;895;-73
2024/02/15 01:26:01;;;;;;;5.18;2.47;;;;;;;;;;605099;23;880;-73
2024/02/15 01:26:16;;;;;;;3.90;2.30;;;;;;;;;;605989;23;1089;-73
2024/02/15 01:26:32;;;;;;;4.77;2.43;;;;;;;;;;607729;23;991;-73
2024/02/15 01:26:49;;;;;;;5.13;2.58;;;;;;;;;;608075;23;1006;-73
2024/02/15 01:27:05;;;;;;;5.07;2.50;;;;;;;;;;608025;23;1047;-73
2024/02/15 01:27:21;;;;;;;5.93;2.60;;;;;;;;;;606066;23;1624;-73
2024/02/15 01:27:36;;;;;;;5.22;2.50;;;;;;;;;;605464;23;803;-72
2024/02/15 01:27:52;;;;;;;4.77;2.40;;;;;;;;;;602343;23;1132;-73
2024/02/15 01:28:07;;;;;;;4.68;2.40;;;;;;;;;;603351;23;828;-73
2024/02/15 01:28:23;;;;;;;5.23;2.60;;;;;;;;;;602419;23;1137;-73
2024/02/15 01:28:38;;;;;;;6.32;2.90;;;;;;;;;;599584;23;1045;-70
2024/02/15 01:28:54;;;;;;;4.67;2.60;;;;;;;;;;599586;23;828;-70
2024/02/15 01:29:12;;;;;;;5.30;2.28;;;;;;;;;;599699;23;1931;-70
2024/02/15 01:29:27;;;;;;;6.05;2.45;;;;;;;;;;602242;23;1251;-70
2024/02/15 01:29:43;;;;;;;6.33;2.50;;;;;;;;;;603086;23;1067;-70
2024/02/15 01:29:59;;;;;;;6.78;2.50;;;;;;;;;;602156;23;1200;-70
2024/02/15 01:30:14;;;;;;;4.97;2.33;;;;;;;;;;601033;23;1315;-70
2024/02/15 01:30:31;;;;;;;4.23;2.07;;;;;;;;;;600523;23;1136;-70
2024/02/15 01:30:47;;;;;;;5.03;2.22;;;;;;;;;;601882;23;876;-70
2024/02/15 01:31:02;;;;;;;5.35;2.40;;;;;;;;;;599237;23;1132;-71
2024/02/15 01:31:18;;;;;;;4.47;2.43;;;;;;;;;;600083;23;1303;-70
2024/02/15 01:31:33;;;;;;;4.63;2.40;;;;;;;;;;598392;23;1028;-70
2024/02/15 01:31:48;;;;;;;4.70;2.20;;;;;;;;;;601812;23;1276;-71
2024/02/15 01:32:05;;;;;;;3.92;2.20;;;;;;;;;;599660;23;1177;-70
2024/02/15 01:32:20;;;;;;;4.03;2.25;;;;;;;;;;599219;23;1233;-70
2024/02/15 01:32:36;;;;;;;5.03;2.43;;;;;;;;;;596820;23;1230;-70
2024/02/15 01:32:52;;;;;;;6.60;2.60;;;;;;;;;;599429;23;1228;-70
2024/02/15 01:33:07;;;;;;;6.65;2.40;;;;;;;;;;602824;23;1204;-70
2024/02/15 01:33:23;;;;;;;5.57;2.30;;;;;;;;;;598769;23;1287;-70
2024/02/15 01:33:38;;;;;;;5.47;2.30;;;;;;;;;;599556;23;913;-70
2024/02/15 01:33:54;;;;;;;5.03;2.20;;;;;;;;;;599651;23;1058;-70
2024/02/15 01:34:09;;;;;;;6.32;2.40;;;;;;;;;;600117;23;1060;-70
2024/02/15 01:34:25;;;;;;;7.23;2.50;;;;;;;;;;599606;23;1312;-70
2024/02/15 01:34:40;;;;;;;6.85;2.47;;;;;;;;;;597232;23;1130;-70
2024/02/15 01:34:56;;;;;;;5.83;2.40;;;;;;;;;;599873;23;911;-70
2024/02/15 01:35:11;;;;;;;4.53;2.33;;;;;;;;;;599391;23;974;-70
2024/02/15 01:35:27;;;;;;;5.37;2.40;;;;;;;;;;599303;23;1000;-70
2024/02/15 01:35:43;;;;;;;7.30;2.47;;;;;;;;;;599605;23;848;-72
2024/02/15 01:35:58;;;;;;;6.53;2.40;;;;;;;;;;599411;23;1208;-70
2024/02/15 01:36:15;;;;;;;5.53;2.37;;;;;;;;;;600990;23;1330;-70
2024/02/15 01:36:31;;;;;;;4.88;2.25;;;;;;;;;;605067;23;1030;-70
2024/02/15 01:36:48;;;;;;;4.22;2.20;;;;;;;;;;602114;23;1328;-70
2024/02/15 01:37:03;;;;;;;4.07;2.20;;;;;;;;;;601781;23;1293;-70
2024/02/15 01:37:20;;;;;;;6.25;2.50;;;;;;;;;;601917;23;1051;-70
2024/02/15 01:37:36;;;;;;;7.15;2.60;;;;;;;;;;602200;23;1352;-70
2024/02/15 01:37:52;;;;;;;6.13;2.50;;;;;;;;;;602738;23;876;-70
2024/02/15 01:38:07;;;;;;;5.43;2.40;;;;;;;;;;602419;23;1052;-70
2024/02/15 01:38:23;;;;;;;5.38;2.30;;;;;;;;;;603180;23;856;-70
2024/02/15 01:38:38;;;;;;;5.47;2.30;;;;;;;;;;599122;23;1042;-70
2024/02/15 01:38:54;;;;;;;6.65;2.47;;;;;;;;;;600362;23;813;-70
2024/02/15 01:39:10;;;;;;;6.70;2.40;;;;;;;;;;602587;23;852;-70